weather.gov     
National Weather Service

Terminal Aerodrome Forecast
NWS Homepage
This page is being discontinued on March 12, 2014.
The same data is available at this site. Please update your bookmarks.
Thank you, and we apologize for the inconvenience.
Please send an email to SR-SRH.Webmaster@noaa.gov with any concerns.


Current Version
Previous Version:    01  02  03  04  05  06  07  08  09  10  11  12  13  14  15  16  17  18  19  20  21  22  23  24  25  26  27  28  29  
[Printable]
775
FTUS45 KSLC 190056 AAA
TAFOGD
TAF AMD
KOGD 190056Z 1901/1924 20008KT P6SM SCT100 SCT150
     FM190145 36013G25KT P6SM SCT060 BKN090
     FM190300 36007KT P6SM VCSH SCT060 BKN090
     FM191100 19006KT P6SM SCT100
     FM191800 31006KT P6SM FEW100=


775
FTUS45 KSLC 190056 AAA
TAFOGD
TAF AMD
KOGD 190056Z 1901/1924 20008KT P6SM SCT100 SCT150
     FM190145 36013G25KT P6SM SCT060 BKN090
     FM190300 36007KT P6SM VCSH SCT060 BKN090
     FM191100 19006KT P6SM SCT100
     FM191800 31006KT P6SM FEW100=




U.S. Dept. of Commerce
NOAA National Weather Service
1325 East West Highway
Silver Spring, MD 20910
E-mail: w-nws.webmaster@noaa.gov
Page last modified: May 16, 2007
NATIONAL WEATHER SERVICE: for Safety, for Work, for Fun - FOR LIFE